sensor_id;sensor_type;location;lat;lon;timestamp;temperature;humidity
7325;DHT22;3703;48.016;7.802;2023-04-23T00:02:34;13.60;99.90
7325;DHT22;3703;48.016;7.802;2023-04-23T00:05:26;13.50;99.90
7325;DHT22;3703;48.016;7.802;2023-04-23T00:08:17;13.50;99.90
7325;DHT22;3703;48.016;7.802;2023-04-23T00:11:06;13.60;99.90
7325;DHT22;3703;48.016;7.802;2023-04-23T00:13:54;13.60;99.90
7325;DHT22;3703;48.016;7.802;2023-04-23T00:16:44;13.50;99.90
7325;DHT22;3703;48.016;7.802;2023-04-23T00:19:32;13.40;99.90
7325;DHT22;3703;48.016;7.802;2023-04-23T00:22:19;13.50;99.90
7325;DHT22;3703;48.016;7.802;2023-04-23T00:25:08;13.40;99.90
7325;DHT22;3703;48.016;7.802;2023-04-23T00:27:55;13.30;99.90
7325;DHT22;3703;48.016;7.802;2023-04-23T00:30:43;13.30;99.90
7325;DHT22;3703;48.016;7.802;2023-04-23T00:33:32;13.40;99.90
7325;DHT22;3703;48.016;7.802;2023-04-23T00:36:19;13.30;99.90
7325;DHT22;3703;48.016;7.802;2023-04-23T00:39:07;13.30;99.90
7325;DHT22;3703;48.016;7.802;2023-04-23T00:41:56;13.20;99.90
7325;DHT22;3703;48.016;7.802;2023-04-23T00:44:44;13.20;99.90
7325;DHT22;3703;48.016;7.802;2023-04-23T00:47:31;13.20;99.90
7325;DHT22;3703;48.016;7.802;2023-04-23T00:50:21;13.00;99.90
7325;DHT22;3703;48.016;7.802;2023-04-23T00:53:09;12.90;99.90
7325;DHT22;3703;48.016;7.802;2023-04-23T00:55:57;12.90;99.90
7325;DHT22;3703;48.016;7.802;2023-04-23T00:58:44;12.90;99.90
7325;DHT22;3703;48.016;7.802;2023-04-23T01:01:32;12.90;99.90
7325;DHT22;3703;48.016;7.802;2023-04-23T01:04:21;13.00;99.90
7325;DHT22;3703;48.016;7.802;2023-04-23T01:07:12;13.10;99.90
7325;DHT22;3703;48.016;7.802;2023-04-23T01:10:00;13.00;99.90
7325;DHT22;3703;48.016;7.802;2023-04-23T01:12:48;13.00;99.90
7325;DHT22;3703;48.016;7.802;2023-04-23T01:15:35;12.80;99.90
7325;DHT22;3703;48.016;7.802;2023-04-23T01:18:23;12.60;99.90
7325;DHT22;3703;48.016;7.802;2023-04-23T01:21:11;12.60;99.90
7325;DHT22;3703;48.016;7.802;2023-04-23T01:24:03;12.50;99.90
7325;DHT22;3703;48.016;7.802;2023-04-23T01:26:51;12.30;99.90
7325;DHT22;3703;48.016;7.802;2023-04-23T01:29:39;12.50;99.90
7325;DHT22;3703;48.016;7.802;2023-04-23T01:32:27;12.40;99.90
7325;DHT22;3703;48.016;7.802;2023-04-23T01:35:15;12.40;99.90
7325;DHT22;3703;48.016;7.802;2023-04-23T01:38:03;12.50;99.90
7325;DHT22;3703;48.016;7.802;2023-04-23T01:40:52;12.60;99.90
7325;DHT22;3703;48.016;7.802;2023-04-23T01:43:41;12.50;99.90
7325;DHT22;3703;48.016;7.802;2023-04-23T01:46:29;12.50;99.90
7325;DHT22;3703;48.016;7.802;2023-04-23T01:49:16;12.40;99.90
7325;DHT22;3703;48.016;7.802;2023-04-23T01:52:04;12.40;99.90
7325;DHT22;3703;48.016;7.802;2023-04-23T01:54:51;12.50;99.90
7325;DHT22;3703;48.016;7.802;2023-04-23T01:57:40;12.50;99.90
7325;DHT22;3703;48.016;7.802;2023-04-23T02:00:28;12.40;99.90
7325;DHT22;3703;48.016;7.802;2023-04-23T02:03:15;12.40;99.90
7325;DHT22;3703;48.016;7.802;2023-04-23T02:06:03;12.40;99.90
7325;DHT22;3703;48.016;7.802;2023-04-23T02:08:51;12.60;99.90
7325;DHT22;3703;48.016;7.802;2023-04-23T02:11:39;12.60;99.90
7325;DHT22;3703;48.016;7.802;2023-04-23T02:14:28;12.70;99.90
7325;DHT22;3703;48.016;7.802;2023-04-23T02:17:16;12.70;99.90
7325;DHT22;3703;48.016;7.802;2023-04-23T02:20:06;12.80;99.90
7325;DHT22;3703;48.016;7.802;2023-04-23T02:22:54;12.70;99.90
7325;DHT22;3703;48.016;7.802;2023-04-23T02:25:42;12.60;99.90
7325;DHT22;3703;48.016;7.802;2023-04-23T02:28:29;12.60;99.90
7325;DHT22;3703;48.016;7.802;2023-04-23T02:31:18;12.60;99.90
7325;DHT22;3703;48.016;7.802;2023-04-23T02:34:06;12.50;99.90
7325;DHT22;3703;48.016;7.802;2023-04-23T02:36:53;12.60;99.90
7325;DHT22;3703;48.016;7.802;2023-04-23T02:39:41;12.60;99.90
7325;DHT22;3703;48.016;7.802;2023-04-23T02:42:29;12.50;99.90
7325;DHT22;3703;48.016;7.802;2023-04-23T02:45:16;12.50;99.90
7325;DHT22;3703;48.016;7.802;2023-04-23T02:48:05;12.30;99.90
7325;DHT22;3703;48.016;7.802;2023-04-23T02:50:53;12.40;99.90
7325;DHT22;3703;48.016;7.802;2023-04-23T02:53:40;12.30;99.90
7325;DHT22;3703;48.016;7.802;2023-04-23T02:56:28;12.30;99.90
7325;DHT22;3703;48.016;7.802;2023-04-23T02:59:15;12.30;99.90
7325;DHT22;3703;48.016;7.802;2023-04-23T03:02:02;12.40;99.90
7325;DHT22;3703;48.016;7.802;2023-04-23T03:04:51;12.40;99.90
7325;DHT22;3703;48.016;7.802;2023-04-23T03:07:39;12.40;99.90
7325;DHT22;3703;48.016;7.802;2023-04-23T03:10:26;12.60;99.90
7325;DHT22;3703;48.016;7.802;2023-04-23T03:13:14;12.60;99.90
7325;DHT22;3703;48.016;7.802;2023-04-23T03:16:02;12.50;99.90
7325;DHT22;3703;48.016;7.802;2023-04-23T03:18:51;12.60;99.90
7325;DHT22;3703;48.016;7.802;2023-04-23T03:21:39;12.60;99.90
7325;DHT22;3703;48.016;7.802;2023-04-23T03:24:27;13.40;99.90
7325;DHT22;3703;48.016;7.802;2023-04-23T03:27:16;12.60;99.90
7325;DHT22;3703;48.016;7.802;2023-04-23T03:30:05;12.60;99.90
7325;DHT22;3703;48.016;7.802;2023-04-23T03:32:54;12.70;99.90
7325;DHT22;3703;48.016;7.802;2023-04-23T03:35:43;12.80;99.90
7325;DHT22;3703;48.016;7.802;2023-04-23T03:38:32;12.70;99.90
7325;DHT22;3703;48.016;7.802;2023-04-23T03:41:19;12.50;99.90
7325;DHT22;3703;48.016;7.802;2023-04-23T03:44:06;12.70;99.90
7325;DHT22;3703;48.016;7.802;2023-04-23T03:46:54;12.60;99.90
7325;DHT22;3703;48.016;7.802;2023-04-23T03:49:42;12.70;99.90
7325;DHT22;3703;48.016;7.802;2023-04-23T03:52:30;12.70;99.90
7325;DHT22;3703;48.016;7.802;2023-04-23T03:55:19;12.70;99.90
7325;DHT22;3703;48.016;7.802;2023-04-23T03:58:06;12.70;99.90
7325;DHT22;3703;48.016;7.802;2023-04-23T04:00:54;12.80;99.90
7325;DHT22;3703;48.016;7.802;2023-04-23T04:03:42;12.70;99.90
7325;DHT22;3703;48.016;7.802;2023-04-23T04:06:29;12.70;99.90
7325;DHT22;3703;48.016;7.802;2023-04-23T04:09:17;12.80;99.90
7325;DHT22;3703;48.016;7.802;2023-04-23T04:12:06;12.80;99.90
7325;DHT22;3703;48.016;7.802;2023-04-23T04:14:53;12.80;99.90
7325;DHT22;3703;48.016;7.802;2023-04-23T04:17:41;12.80;99.90
7325;DHT22;3703;48.016;7.802;2023-04-23T04:20:30;12.90;99.90
7325;DHT22;3703;48.016;7.802;2023-04-23T04:23:18;12.90;99.90
7325;DHT22;3703;48.016;7.802;2023-04-23T04:26:05;12.80;99.90
7325;DHT22;3703;48.016;7.802;2023-04-23T04:28:55;12.80;99.90
7325;DHT22;3703;48.016;7.802;2023-04-23T04:31:43;12.80;99.90
7325;DHT22;3703;48.016;7.802;2023-04-23T04:34:31;13.00;99.90
7325;DHT22;3703;48.016;7.802;2023-04-23T04:37:18;12.90;99.90
7325;DHT22;3703;48.016;7.802;2023-04-23T04:40:07;12.80;99.90
7325;DHT22;3703;48.016;7.802;2023-04-23T04:42:56;12.90;99.90
7325;DHT22;3703;48.016;7.802;2023-04-23T04:45:46;12.70;99.90
7325;DHT22;3703;48.016;7.802;2023-04-23T04:48:34;12.70;99.90
7325;DHT22;3703;48.016;7.802;2023-04-23T04:51:21;12.60;99.90
7325;DHT22;3703;48.016;7.802;2023-04-23T04:54:09;12.70;99.90
7325;DHT22;3703;48.016;7.802;2023-04-23T04:56:56;12.60;99.90
7325;DHT22;3703;48.016;7.802;2023-04-23T04:59:44;12.70;99.90
7325;DHT22;3703;48.016;7.802;2023-04-23T05:02:33;12.60;99.90
7325;DHT22;3703;48.016;7.802;2023-04-23T05:05:21;12.70;99.90
7325;DHT22;3703;48.016;7.802;2023-04-23T05:08:10;12.70;99.90
7325;DHT22;3703;48.016;7.802;2023-04-23T05:10:58;12.70;99.90
7325;DHT22;3703;48.016;7.802;2023-04-23T05:13:46;12.90;99.90
7325;DHT22;3703;48.016;7.802;2023-04-23T05:16:34;13.00;99.90
7325;DHT22;3703;48.016;7.802;2023-04-23T05:19:23;13.10;99.90
7325;DHT22;3703;48.016;7.802;2023-04-23T05:22:11;13.20;99.90
7325;DHT22;3703;48.016;7.802;2023-04-23T05:24:58;13.10;99.90
7325;DHT22;3703;48.016;7.802;2023-04-23T05:27:46;12.90;99.90
7325;DHT22;3703;48.016;7.802;2023-04-23T05:30:33;13.10;99.90
7325;DHT22;3703;48.016;7.802;2023-04-23T05:33:21;13.10;99.90
7325;DHT22;3703;48.016;7.802;2023-04-23T05:36:10;13.00;99.90
7325;DHT22;3703;48.016;7.802;2023-04-23T05:38:58;13.10;99.90
7325;DHT22;3703;48.016;7.802;2023-04-23T05:41:45;13.20;99.90
7325;DHT22;3703;48.016;7.802;2023-04-23T05:44:32;13.40;99.90
7325;DHT22;3703;48.016;7.802;2023-04-23T05:47:20;13.60;99.90
7325;DHT22;3703;48.016;7.802;2023-04-23T05:50:08;13.70;99.90
7325;DHT22;3703;48.016;7.802;2023-04-23T05:52:59;13.50;99.90
7325;DHT22;3703;48.016;7.802;2023-04-23T05:55:46;13.60;99.90
7325;DHT22;3703;48.016;7.802;2023-04-23T05:58:34;13.70;99.90
7325;DHT22;3703;48.016;7.802;2023-04-23T06:01:23;13.80;99.90
7325;DHT22;3703;48.016;7.802;2023-04-23T06:04:11;13.70;99.90
7325;DHT22;3703;48.016;7.802;2023-04-23T06:06:58;13.50;99.90
7325;DHT22;3703;48.016;7.802;2023-04-23T06:09:47;13.50;99.90
7325;DHT22;3703;48.016;7.802;2023-04-23T06:12:34;13.50;99.90
7325;DHT22;3703;48.016;7.802;2023-04-23T06:15:24;13.50;99.90
7325;DHT22;3703;48.016;7.802;2023-04-23T06:18:12;13.40;99.90
7325;DHT22;3703;48.016;7.802;2023-04-23T06:20:59;13.70;99.90
7325;DHT22;3703;48.016;7.802;2023-04-23T06:23:49;14.10;99.90
7325;DHT22;3703;48.016;7.802;2023-04-23T06:26:38;14.20;99.90
7325;DHT22;3703;48.016;7.802;2023-04-23T06:29:26;14.40;99.90
7325;DHT22;3703;48.016;7.802;2023-04-23T06:32:13;14.90;99.90
7325;DHT22;3703;48.016;7.802;2023-04-23T06:35:01;15.10;99.90
7325;DHT22;3703;48.016;7.802;2023-04-23T06:37:49;15.40;99.90
7325;DHT22;3703;48.016;7.802;2023-04-23T06:40:36;15.50;99.90
7325;DHT22;3703;48.016;7.802;2023-04-23T06:43:25;15.20;99.90
7325;DHT22;3703;48.016;7.802;2023-04-23T06:46:13;15.10;99.90
7325;DHT22;3703;48.016;7.802;2023-04-23T06:49:00;13.80;99.90
7325;DHT22;3703;48.016;7.802;2023-04-23T06:51:48;14.70;99.90
7325;DHT22;3703;48.016;7.802;2023-04-23T06:54:35;14.80;99.90
7325;DHT22;3703;48.016;7.802;2023-04-23T06:57:23;14.90;99.90
7325;DHT22;3703;48.016;7.802;2023-04-23T07:00:12;14.90;99.90
7325;DHT22;3703;48.016;7.802;2023-04-23T07:03:00;15.20;99.90
7325;DHT22;3703;48.016;7.802;2023-04-23T07:05:48;15.40;99.90
7325;DHT22;3703;48.016;7.802;2023-04-23T07:08:35;15.10;99.90
7325;DHT22;3703;48.016;7.802;2023-04-23T07:11:24;14.80;99.90
7325;DHT22;3703;48.016;7.802;2023-04-23T07:14:12;15.00;99.90
7325;DHT22;3703;48.016;7.802;2023-04-23T07:17:01;15.10;99.90
7325;DHT22;3703;48.016;7.802;2023-04-23T07:19:48;15.00;99.90
7325;DHT22;3703;48.016;7.802;2023-04-23T07:22:36;15.20;99.90
7325;DHT22;3703;48.016;7.802;2023-04-23T07:25:23;15.20;99.90
7325;DHT22;3703;48.016;7.802;2023-04-23T07:28:11;15.10;99.90
7325;DHT22;3703;48.016;7.802;2023-04-23T07:30:59;15.20;99.90
7325;DHT22;3703;48.016;7.802;2023-04-23T07:33:48;15.20;99.90
7325;DHT22;3703;48.016;7.802;2023-04-23T07:36:35;15.30;99.90
7325;DHT22;3703;48.016;7.802;2023-04-23T07:39:23;15.60;99.90
7325;DHT22;3703;48.016;7.802;2023-04-23T07:42:10;15.90;99.90
7325;DHT22;3703;48.016;7.802;2023-04-23T07:44:58;15.90;99.90
7325;DHT22;3703;48.016;7.802;2023-04-23T07:47:46;15.80;99.90
7325;DHT22;3703;48.016;7.802;2023-04-23T07:50:38;15.80;99.90
7325;DHT22;3703;48.016;7.802;2023-04-23T07:53:25;16.20;99.90
7325;DHT22;3703;48.016;7.802;2023-04-23T07:56:14;16.00;99.90
7325;DHT22;3703;48.016;7.802;2023-04-23T07:59:01;16.00;99.90
7325;DHT22;3703;48.016;7.802;2023-04-23T08:01:49;16.00;99.90
7325;DHT22;3703;48.016;7.802;2023-04-23T08:04:36;16.20;99.90
7325;DHT22;3703;48.016;7.802;2023-04-23T08:07:25;16.20;99.90
7325;DHT22;3703;48.016;7.802;2023-04-23T08:10:14;16.20;99.90
7325;DHT22;3703;48.016;7.802;2023-04-23T08:13:02;16.30;99.90
7325;DHT22;3703;48.016;7.802;2023-04-23T08:15:49;16.10;99.90
7325;DHT22;3703;48.016;7.802;2023-04-23T08:18:37;16.00;99.90
7325;DHT22;3703;48.016;7.802;2023-04-23T08:21:25;16.40;99.90
7325;DHT22;3703;48.016;7.802;2023-04-23T08:24:15;16.60;99.90
7325;DHT22;3703;48.016;7.802;2023-04-23T08:27:02;16.60;99.90
7325;DHT22;3703;48.016;7.802;2023-04-23T08:29:50;17.00;99.90
7325;DHT22;3703;48.016;7.802;2023-04-23T08:32:38;17.10;99.90
7325;DHT22;3703;48.016;7.802;2023-04-23T08:35:26;17.30;99.90
7325;DHT22;3703;48.016;7.802;2023-04-23T08:38:14;16.80;99.90
7325;DHT22;3703;48.016;7.802;2023-04-23T08:41:05;17.40;99.90
7325;DHT22;3703;48.016;7.802;2023-04-23T08:43:58;17.60;99.90
7325;DHT22;3703;48.016;7.802;2023-04-23T08:46:49;18.40;99.90
7325;DHT22;3703;48.016;7.802;2023-04-23T08:49:40;17.60;99.90
7325;DHT22;3703;48.016;7.802;2023-04-23T08:52:32;17.40;99.90
7325;DHT22;3703;48.016;7.802;2023-04-23T08:55:21;17.70;99.90
7325;DHT22;3703;48.016;7.802;2023-04-23T08:58:11;17.10;99.90
7325;DHT22;3703;48.016;7.802;2023-04-23T09:01:00;17.50;99.90
7325;DHT22;3703;48.016;7.802;2023-04-23T09:03:47;18.00;99.90
7325;DHT22;3703;48.016;7.802;2023-04-23T09:06:36;18.40;99.90
7325;DHT22;3703;48.016;7.802;2023-04-23T09:09:27;17.90;99.90
7325;DHT22;3703;48.016;7.802;2023-04-23T09:12:15;18.10;99.90
7325;DHT22;3703;48.016;7.802;2023-04-23T09:15:05;18.70;99.90
7325;DHT22;3703;48.016;7.802;2023-04-23T09:17:56;19.50;99.90
7325;DHT22;3703;48.016;7.802;2023-04-23T09:20:44;20.00;99.90
7325;DHT22;3703;48.016;7.802;2023-04-23T09:23:32;19.90;99.90
7325;DHT22;3703;48.016;7.802;2023-04-23T09:26:20;19.40;99.90
7325;DHT22;3703;48.016;7.802;2023-04-23T09:29:12;19.90;99.90
7325;DHT22;3703;48.016;7.802;2023-04-23T09:32:06;20.60;99.90
7325;DHT22;3703;48.016;7.802;2023-04-23T09:34:55;21.00;99.90
7325;DHT22;3703;48.016;7.802;2023-04-23T09:37:45;19.70;99.90
7325;DHT22;3703;48.016;7.802;2023-04-23T09:40:33;19.50;99.90
7325;DHT22;3703;48.016;7.802;2023-04-23T09:43:22;19.10;99.90
7325;DHT22;3703;48.016;7.802;2023-04-23T09:46:10;19.20;99.90
7325;DHT22;3703;48.016;7.802;2023-04-23T09:48:59;19.10;99.90
7325;DHT22;3703;48.016;7.802;2023-04-23T09:51:48;19.20;99.90
7325;DHT22;3703;48.016;7.802;2023-04-23T09:54:36;18.50;99.90
7325;DHT22;3703;48.016;7.802;2023-04-23T09:57:23;18.40;99.90
7325;DHT22;3703;48.016;7.802;2023-04-23T10:00:13;18.40;99.90
7325;DHT22;3703;48.016;7.802;2023-04-23T10:03:04;18.90;99.90
7325;DHT22;3703;48.016;7.802;2023-04-23T10:05:54;18.80;99.90
7325;DHT22;3703;48.016;7.802;2023-04-23T10:08:43;19.70;99.90
7325;DHT22;3703;48.016;7.802;2023-04-23T10:11:32;18.60;99.90
7325;DHT22;3703;48.016;7.802;2023-04-23T10:14:20;18.40;99.90
7325;DHT22;3703;48.016;7.802;2023-04-23T10:17:08;18.30;99.90
7325;DHT22;3703;48.016;7.802;2023-04-23T10:19:57;18.60;99.90
7325;DHT22;3703;48.016;7.802;2023-04-23T10:22:49;18.60;99.90
7325;DHT22;3703;48.016;7.802;2023-04-23T10:25:39;18.80;99.90
7325;DHT22;3703;48.016;7.802;2023-04-23T10:28:29;18.60;99.90
7325;DHT22;3703;48.016;7.802;2023-04-23T10:31:19;18.90;99.90
7325;DHT22;3703;48.016;7.802;2023-04-23T10:34:09;19.70;99.90
7325;DHT22;3703;48.016;7.802;2023-04-23T10:36:58;19.80;99.90
7325;DHT22;3703;48.016;7.802;2023-04-23T10:39:53;19.90;99.90
7325;DHT22;3703;48.016;7.802;2023-04-23T10:42:42;19.60;99.90
7325;DHT22;3703;48.016;7.802;2023-04-23T10:45:30;19.20;99.90
7325;DHT22;3703;48.016;7.802;2023-04-23T10:48:19;19.30;99.90
7325;DHT22;3703;48.016;7.802;2023-04-23T10:51:06;19.20;99.90
7325;DHT22;3703;48.016;7.802;2023-04-23T10:53:54;19.10;99.90
7325;DHT22;3703;48.016;7.802;2023-04-23T10:56:44;19.30;99.90
7325;DHT22;3703;48.016;7.802;2023-04-23T10:59:33;19.20;99.90
7325;DHT22;3703;48.016;7.802;2023-04-23T11:02:23;18.90;99.90
7325;DHT22;3703;48.016;7.802;2023-04-23T11:05:11;19.20;99.90
7325;DHT22;3703;48.016;7.802;2023-04-23T11:08:03;19.90;99.90
7325;DHT22;3703;48.016;7.802;2023-04-23T11:10:54;20.30;99.90
7325;DHT22;3703;48.016;7.802;2023-04-23T11:13:51;20.80;99.90
7325;DHT22;3703;48.016;7.802;2023-04-23T11:16:40;19.60;99.90
7325;DHT22;3703;48.016;7.802;2023-04-23T11:19:27;19.60;99.90
7325;DHT22;3703;48.016;7.802;2023-04-23T11:22:16;20.00;99.90
7325;DHT22;3703;48.016;7.802;2023-04-23T11:25:08;20.30;99.90
7325;DHT22;3703;48.016;7.802;2023-04-23T11:27:57;21.00;99.90
7325;DHT22;3703;48.016;7.802;2023-04-23T11:30:49;21.50;99.90
7325;DHT22;3703;48.016;7.802;2023-04-23T11:33:37;21.40;99.90
7325;DHT22;3703;48.016;7.802;2023-04-23T11:36:26;21.80;99.90
7325;DHT22;3703;48.016;7.802;2023-04-23T11:39:13;21.50;99.90
7325;DHT22;3703;48.016;7.802;2023-04-23T11:42:01;21.70;99.90
7325;DHT22;3703;48.016;7.802;2023-04-23T11:44:51;21.00;99.90
7325;DHT22;3703;48.016;7.802;2023-04-23T11:47:43;21.10;99.90
7325;DHT22;3703;48.016;7.802;2023-04-23T11:50:32;21.60;99.90
7325;DHT22;3703;48.016;7.802;2023-04-23T11:53:20;21.50;99.90
7325;DHT22;3703;48.016;7.802;2023-04-23T11:56:08;21.90;99.90
7325;DHT22;3703;48.016;7.802;2023-04-23T11:58:59;21.60;99.90
7325;DHT22;3703;48.016;7.802;2023-04-23T12:01:51;20.90;99.90
7325;DHT22;3703;48.016;7.802;2023-04-23T12:04:42;20.80;99.90
7325;DHT22;3703;48.016;7.802;2023-04-23T12:07:31;21.50;99.90
7325;DHT22;3703;48.016;7.802;2023-04-23T12:10:20;21.00;99.90
7325;DHT22;3703;48.016;7.802;2023-04-23T12:13:13;20.80;99.90
7325;DHT22;3703;48.016;7.802;2023-04-23T12:16:02;20.60;99.90
7325;DHT22;3703;48.016;7.802;2023-04-23T12:18:52;20.50;99.90
7325;DHT22;3703;48.016;7.802;2023-04-23T12:21:49;20.60;99.90
7325;DHT22;3703;48.016;7.802;2023-04-23T12:24:47;20.90;99.90
7325;DHT22;3703;48.016;7.802;2023-04-23T12:27:38;21.30;99.90
7325;DHT22;3703;48.016;7.802;2023-04-23T12:30:27;22.10;99.90
7325;DHT22;3703;48.016;7.802;2023-04-23T12:33:15;21.80;99.90
7325;DHT22;3703;48.016;7.802;2023-04-23T12:36:10;21.20;99.90
7325;DHT22;3703;48.016;7.802;2023-04-23T12:39:28;21.10;99.90
7325;DHT22;3703;48.016;7.802;2023-04-23T12:42:16;21.10;99.90
7325;DHT22;3703;48.016;7.802;2023-04-23T12:45:06;21.40;99.90
7325;DHT22;3703;48.016;7.802;2023-04-23T12:47:55;22.60;99.90
7325;DHT22;3703;48.016;7.802;2023-04-23T12:50:43;23.70;99.90
7325;DHT22;3703;48.016;7.802;2023-04-23T12:53:31;23.10;99.90
7325;DHT22;3703;48.016;7.802;2023-04-23T12:56:20;22.40;99.90
7325;DHT22;3703;48.016;7.802;2023-04-23T12:59:08;21.30;99.90
7325;DHT22;3703;48.016;7.802;2023-04-23T13:01:56;20.90;99.90
7325;DHT22;3703;48.016;7.802;2023-04-23T13:04:46;20.70;99.90
7325;DHT22;3703;48.016;7.802;2023-04-23T13:07:34;20.60;99.90
7325;DHT22;3703;48.016;7.802;2023-04-23T13:10:21;20.90;99.90
7325;DHT22;3703;48.016;7.802;2023-04-23T13:13:10;21.00;99.90
7325;DHT22;3703;48.016;7.802;2023-04-23T13:15:57;20.90;99.90
7325;DHT22;3703;48.016;7.802;2023-04-23T13:18:45;21.00;99.90
7325;DHT22;3703;48.016;7.802;2023-04-23T13:21:33;21.20;99.90
7325;DHT22;3703;48.016;7.802;2023-04-23T13:24:20;21.10;99.90
7325;DHT22;3703;48.016;7.802;2023-04-23T13:27:09;20.80;99.90
7325;DHT22;3703;48.016;7.802;2023-04-23T13:29:58;20.50;99.90
7325;DHT22;3703;48.016;7.802;2023-04-23T13:32:45;20.60;99.90
7325;DHT22;3703;48.016;7.802;2023-04-23T13:35:33;20.80;99.90
7325;DHT22;3703;48.016;7.802;2023-04-23T13:38:23;21.10;99.90
7325;DHT22;3703;48.016;7.802;2023-04-23T13:41:10;21.20;99.90
7325;DHT22;3703;48.016;7.802;2023-04-23T13:43:58;21.30;99.90
7325;DHT22;3703;48.016;7.802;2023-04-23T13:46:48;21.30;99.90
7325;DHT22;3703;48.016;7.802;2023-04-23T13:49:36;21.20;99.90
7325;DHT22;3703;48.016;7.802;2023-04-23T13:52:23;21.00;99.90
7325;DHT22;3703;48.016;7.802;2023-04-23T13:55:11;21.00;99.90
7325;DHT22;3703;48.016;7.802;2023-04-23T13:57:58;20.70;99.90
7325;DHT22;3703;48.016;7.802;2023-04-23T14:00:46;20.40;99.90
7325;DHT22;3703;48.016;7.802;2023-04-23T14:03:35;20.60;99.90
7325;DHT22;3703;48.016;7.802;2023-04-23T14:06:22;20.80;99.90
7325;DHT22;3703;48.016;7.802;2023-04-23T14:09:10;20.50;99.90
7325;DHT22;3703;48.016;7.802;2023-04-23T14:11:58;20.20;99.90
7325;DHT22;3703;48.016;7.802;2023-04-23T14:14:46;20.00;99.90
7325;DHT22;3703;48.016;7.802;2023-04-23T14:17:34;20.20;99.90
7325;DHT22;3703;48.016;7.802;2023-04-23T14:20:23;20.00;99.90
7325;DHT22;3703;48.016;7.802;2023-04-23T14:23:43;19.80;99.90
7325;DHT22;3703;48.016;7.802;2023-04-23T14:26:35;19.80;99.90
7325;DHT22;3703;48.016;7.802;2023-04-23T14:29:29;19.50;99.90
7325;DHT22;3703;48.016;7.802;2023-04-23T14:32:22;19.10;99.90
7325;DHT22;3703;48.016;7.802;2023-04-23T14:35:11;18.80;99.90
7325;DHT22;3703;48.016;7.802;2023-04-23T14:38:00;18.10;99.90
7325;DHT22;3703;48.016;7.802;2023-04-23T14:40:48;17.90;99.90
7325;DHT22;3703;48.016;7.802;2023-04-23T14:43:35;17.80;99.90
7325;DHT22;3703;48.016;7.802;2023-04-23T14:46:24;17.50;99.90
7325;DHT22;3703;48.016;7.802;2023-04-23T14:49:12;17.50;99.90
7325;DHT22;3703;48.016;7.802;2023-04-23T14:51:59;17.80;99.90
7325;DHT22;3703;48.016;7.802;2023-04-23T14:54:50;18.00;99.90
7325;DHT22;3703;48.016;7.802;2023-04-23T14:57:38;18.20;99.90
7325;DHT22;3703;48.016;7.802;2023-04-23T15:00:26;18.30;99.90
7325;DHT22;3703;48.016;7.802;2023-04-23T15:03:14;18.30;99.90
7325;DHT22;3703;48.016;7.802;2023-04-23T15:06:02;18.50;99.90
7325;DHT22;3703;48.016;7.802;2023-04-23T15:08:50;18.60;99.90
7325;DHT22;3703;48.016;7.802;2023-04-23T15:11:39;18.80;99.90
7325;DHT22;3703;48.016;7.802;2023-04-23T15:14:30;18.80;99.90
7325;DHT22;3703;48.016;7.802;2023-04-23T15:17:18;18.60;99.90
7325;DHT22;3703;48.016;7.802;2023-04-23T15:20:06;18.40;99.90
7325;DHT22;3703;48.016;7.802;2023-04-23T15:22:54;18.20;99.90
7325;DHT22;3703;48.016;7.802;2023-04-23T15:25:41;18.30;99.90
7325;DHT22;3703;48.016;7.802;2023-04-23T15:28:30;18.10;99.90
7325;DHT22;3703;48.016;7.802;2023-04-23T15:31:18;18.10;99.90
7325;DHT22;3703;48.016;7.802;2023-04-23T15:34:05;18.00;99.90
7325;DHT22;3703;48.016;7.802;2023-04-23T15:36:53;17.90;99.90
7325;DHT22;3703;48.016;7.802;2023-04-23T15:39:40;17.90;99.90
7325;DHT22;3703;48.016;7.802;2023-04-23T15:42:28;17.30;99.90
7325;DHT22;3703;48.016;7.802;2023-04-23T15:45:17;17.80;99.90
7325;DHT22;3703;48.016;7.802;2023-04-23T15:48:04;17.80;99.90
7325;DHT22;3703;48.016;7.802;2023-04-23T15:50:52;17.90;99.90
7325;DHT22;3703;48.016;7.802;2023-04-23T15:53:39;17.90;99.90
7325;DHT22;3703;48.016;7.802;2023-04-23T15:56:27;17.80;99.90
7325;DHT22;3703;48.016;7.802;2023-04-23T15:59:15;18.50;99.90
7325;DHT22;3703;48.016;7.802;2023-04-23T16:02:04;17.80;99.90
7325;DHT22;3703;48.016;7.802;2023-04-23T16:04:51;17.90;99.90
7325;DHT22;3703;48.016;7.802;2023-04-23T16:07:39;17.70;99.90
7325;DHT22;3703;48.016;7.802;2023-04-23T16:10:26;17.70;99.90
7325;DHT22;3703;48.016;7.802;2023-04-23T16:13:16;17.70;99.90
7325;DHT22;3703;48.016;7.802;2023-04-23T16:16:04;17.70;99.90
7325;DHT22;3703;48.016;7.802;2023-04-23T16:18:53;17.70;99.90
7325;DHT22;3703;48.016;7.802;2023-04-23T16:21:40;17.70;99.90
7325;DHT22;3703;48.016;7.802;2023-04-23T16:24:28;17.60;99.90
7325;DHT22;3703;48.016;7.802;2023-04-23T16:27:15;17.70;99.90
7325;DHT22;3703;48.016;7.802;2023-04-23T16:30:04;17.50;99.90
7325;DHT22;3703;48.016;7.802;2023-04-23T16:32:52;17.60;99.90
7325;DHT22;3703;48.016;7.802;2023-04-23T16:35:41;17.50;99.90
7325;DHT22;3703;48.016;7.802;2023-04-23T16:38:29;17.60;99.90
7325;DHT22;3703;48.016;7.802;2023-04-23T16:41:16;17.60;99.90
7325;DHT22;3703;48.016;7.802;2023-04-23T16:44:04;17.50;99.90
7325;DHT22;3703;48.016;7.802;2023-04-23T16:46:52;17.70;99.90
7325;DHT22;3703;48.016;7.802;2023-04-23T16:49:39;17.50;99.90
7325;DHT22;3703;48.016;7.802;2023-04-23T16:52:28;17.60;99.90
7325;DHT22;3703;48.016;7.802;2023-04-23T16:55:16;17.40;99.90
7325;DHT22;3703;48.016;7.802;2023-04-23T16:58:03;17.50;99.90
7325;DHT22;3703;48.016;7.802;2023-04-23T17:00:51;17.40;99.90
7325;DHT22;3703;48.016;7.802;2023-04-23T17:03:39;17.40;99.90
7325;DHT22;3703;48.016;7.802;2023-04-23T17:06:28;17.50;99.90
7325;DHT22;3703;48.016;7.802;2023-04-23T17:09:17;17.40;99.90
7325;DHT22;3703;48.016;7.802;2023-04-23T17:12:04;17.60;99.90
7325;DHT22;3703;48.016;7.802;2023-04-23T17:14:52;17.60;99.90
7325;DHT22;3703;48.016;7.802;2023-04-23T17:17:40;17.70;99.90
7325;DHT22;3703;48.016;7.802;2023-04-23T17:20:27;17.90;99.90
7325;DHT22;3703;48.016;7.802;2023-04-23T17:23:19;17.60;99.90
7325;DHT22;3703;48.016;7.802;2023-04-23T17:26:08;17.70;99.90
7325;DHT22;3703;48.016;7.802;2023-04-23T17:28:56;17.40;99.90
7325;DHT22;3703;48.016;7.802;2023-04-23T17:31:44;17.40;99.90
7325;DHT22;3703;48.016;7.802;2023-04-23T17:34:32;17.20;99.90
7325;DHT22;3703;48.016;7.802;2023-04-23T17:37:20;16.80;99.90
7325;DHT22;3703;48.016;7.802;2023-04-23T17:40:09;14.70;99.90
7325;DHT22;3703;48.016;7.802;2023-04-23T17:42:58;13.40;99.90
7325;DHT22;3703;48.016;7.802;2023-04-23T17:45:46;13.20;99.90
7325;DHT22;3703;48.016;7.802;2023-04-23T17:48:33;13.20;99.90
7325;DHT22;3703;48.016;7.802;2023-04-23T17:51:21;13.20;99.90
7325;DHT22;3703;48.016;7.802;2023-04-23T17:54:08;13.00;99.90
7325;DHT22;3703;48.016;7.802;2023-04-23T17:56:56;12.90;99.90
7325;DHT22;3703;48.016;7.802;2023-04-23T17:59:45;12.90;99.90
7325;DHT22;3703;48.016;7.802;2023-04-23T18:02:32;12.80;99.90
7325;DHT22;3703;48.016;7.802;2023-04-23T18:05:24;12.90;99.90
7325;DHT22;3703;48.016;7.802;2023-04-23T18:08:12;12.90;99.90
7325;DHT22;3703;48.016;7.802;2023-04-23T18:11:01;12.80;99.90
7325;DHT22;3703;48.016;7.802;2023-04-23T18:13:50;12.90;99.90
7325;DHT22;3703;48.016;7.802;2023-04-23T18:16:40;12.70;99.90
7325;DHT22;3703;48.016;7.802;2023-04-23T18:19:28;12.90;99.90
7325;DHT22;3703;48.016;7.802;2023-04-23T18:22:16;13.00;99.90